Time;durP1;ratioP1;P1;durP2;ratioP2;P2;SDS_P1;SDS_P2;PMS_P1;PMS_P2;Temp;Humidity;BMP_temperature;BMP_pressure;BME280_temperature;BME280_humidity;BME280_pressure;Samples;Min_cycle;Max_cycle;Signal;HPM_P1;HPM_P2
2021/05/25 00:00:26;;;;;;;;;12.50;12.50;;;;;;;;3724209;37;20824;-57
2021/05/25 00:02:52;;;;;;;;;12.00;11.67;;;;;;;;3723744;38;20810;-57
2021/05/25 00:05:23;;;;;;;;;12.00;11.25;;;;;;;;3724042;37;20845;-55
2021/05/25 00:07:49;;;;;;;;;15.75;13.75;;;;;;;;3724632;37;20798;-56
2021/05/25 00:10:15;;;;;;;;;13.75;13.00;;;;;;;;3724631;38;20796;-57
2021/05/25 00:12:42;;;;;;;;;11.25;11.25;;;;;;;;3724637;38;20790;-57
2021/05/25 00:15:11;;;;;;;;;13.00;11.50;;;;;;;;3724651;37;20776;-57
2021/05/25 00:17:37;;;;;;;;;12.25;12.25;;;;;;;;3724615;37;20791;-57
2021/05/25 00:20:06;;;;;;;;;10.75;10.75;;;;;;;;3724622;38;20776;-56
2021/05/25 00:22:33;;;;;;;;;9.50;9.50;;;;;;;;3724625;38;20758;-58
2021/05/25 00:25:02;;;;;;;;;11.75;11.75;;;;;;;;3724391;38;20701;-57
2021/05/25 00:27:28;;;;;;;;;11.75;11.75;;;;;;;;3724679;37;20730;-57
2021/05/25 00:29:53;;;;;;;;;10.50;10.50;;;;;;;;3724474;37;20786;-57
2021/05/25 00:32:19;;;;;;;;;12.00;12.00;;;;;;;;3724492;38;18644;-56
2021/05/25 00:34:47;;;;;;;;;11.25;11.25;;;;;;;;3724455;38;18643;-57
2021/05/25 00:37:13;;;;;;;;;11.50;11.50;;;;;;;;3724566;38;18630;-56
2021/05/25 00:39:39;;;;;;;;;12.00;11.00;;;;;;;;3724440;38;20727;-57
2021/05/25 00:42:05;;;;;;;;;10.75;10.75;;;;;;;;3724543;37;18632;-57
2021/05/25 00:44:31;;;;;;;;;12.00;11.75;;;;;;;;3724525;38;18634;-56
2021/05/25 00:46:58;;;;;;;;;12.00;11.00;;;;;;;;3724568;37;21707;-56
2021/05/25 00:49:24;;;;;;;;;10.00;9.50;;;;;;;;3724559;38;21714;-57
2021/05/25 00:51:51;;;;;;;;;11.00;10.00;;;;;;;;3724364;37;21711;-56
2021/05/25 00:54:18;;;;;;;;;9.50;9.50;;;;;;;;3724167;37;18613;-56
2021/05/25 00:56:45;;;;;;;;;10.50;10.50;;;;;;;;3724543;37;21693;-57
2021/05/25 00:59:12;;;;;;;;;8.00;8.00;;;;;;;;3724256;37;21688;-56
2021/05/25 01:01:39;;;;;;;;;10.00;9.25;;;;;;;;3724129;37;21630;-56
2021/05/25 01:04:06;;;;;;;;;10.50;9.50;;;;;;;;3724590;37;21623;-56
2021/05/25 01:06:33;;;;;;;;;13.75;12.25;;;;;;;;3724513;37;21755;-57
2021/05/25 01:09:01;;;;;;;;;11.00;9.00;;;;;;;;3724374;37;21725;-57
2021/05/25 01:11:33;;;;;;;;;9.25;9.25;;;;;;;;3724111;37;21904;-57
2021/05/25 01:14:00;;;;;;;;;11.00;11.00;;;;;;;;3724642;38;21608;-57
2021/05/25 01:16:30;;;;;;;;;12.00;11.00;;;;;;;;3724221;37;21683;-56
2021/05/25 01:18:57;;;;;;;;;10.25;10.00;;;;;;;;3724201;38;21877;-57
2021/05/25 01:21:25;;;;;;;;;12.75;11.75;;;;;;;;3724770;38;21553;-56
2021/05/25 01:23:52;;;;;;;;;9.25;9.25;;;;;;;;3724073;38;21662;-57
2021/05/25 01:26:19;;;;;;;;;10.25;9.25;;;;;;;;3724418;38;21633;-57
2021/05/25 01:28:46;;;;;;;;;11.00;11.00;;;;;;;;3724655;37;21671;-57
2021/05/25 01:31:13;;;;;;;;;7.50;7.50;;;;;;;;3724598;37;21742;-58
2021/05/25 01:33:39;;;;;;;;;9.50;9.50;;;;;;;;3724765;37;21573;-58
2021/05/25 01:36:07;;;;;;;;;15.00;14.00;;;;;;;;3724509;37;21569;-57
2021/05/25 01:38:34;;;;;;;;;13.00;13.00;;;;;;;;3724427;38;21644;-57
2021/05/25 01:41:00;;;;;;;;;9.75;9.75;;;;;;;;3724663;37;21675;-56
2021/05/25 01:43:27;;;;;;;;;9.75;9.50;;;;;;;;3724654;38;21533;-57
2021/05/25 01:45:52;;;;;;;;;11.50;11.50;;;;;;;;3724543;37;21554;-56
2021/05/25 01:48:20;;;;;;;;;9.50;9.00;;;;;;;;3724575;38;21640;-57
2021/05/25 01:50:46;;;;;;;;;10.75;10.00;;;;;;;;3724376;37;18546;-56
2021/05/25 01:53:13;;;;;;;;;10.50;9.50;;;;;;;;3724511;37;21609;-57
2021/05/25 01:55:47;;;;;;;;;9.75;9.00;;;;;;;;3724770;37;21541;-56
2021/05/25 01:58:15;;;;;;;;;9.00;8.75;;;;;;;;3724663;37;21597;-56
2021/05/25 02:00:44;;;;;;;;;10.75;10.75;;;;;;;;3724524;38;21499;-56
2021/05/25 02:03:10;;;;;;;;;9.50;9.50;;;;;;;;3724643;38;21508;-57
2021/05/25 02:05:38;;;;;;;;;9.50;9.00;;;;;;;;3724968;38;21265;-57
2021/05/25 02:08:05;;;;;;;;;10.25;10.25;;;;;;;;3724666;38;21543;-57
2021/05/25 02:10:35;;;;;;;;;10.50;10.50;;;;;;;;3724360;37;21644;-58
2021/05/25 02:13:03;;;;;;;;;12.50;11.00;;;;;;;;3724168;37;21509;-57
2021/05/25 02:15:30;;;;;;;;;10.50;10.50;;;;;;;;3724575;38;21590;-57
2021/05/25 02:18:17;;;;;;;;;9.25;8.50;;;;;;;;3724609;38;21649;-57
2021/05/25 02:20:43;;;;;;;;;12.00;11.00;;;;;;;;3724171;38;21558;-57
2021/05/25 02:23:10;;;;;;;;;9.75;9.50;;;;;;;;3724507;38;21671;-57
2021/05/25 02:25:37;;;;;;;;;12.00;10.25;;;;;;;;3724799;37;21476;-56
2021/05/25 02:28:03;;;;;;;;;12.00;12.00;;;;;;;;3724628;38;21615;-56
2021/05/25 02:30:30;;;;;;;;;6.50;6.50;;;;;;;;3724689;37;21615;-55
2021/05/25 02:32:58;;;;;;;;;11.75;10.00;;;;;;;;3724297;37;21451;-58
2021/05/25 02:35:27;;;;;;;;;10.50;10.50;;;;;;;;3724575;38;21582;-57
2021/05/25 02:37:56;;;;;;;;;12.25;11.75;;;;;;;;3724297;38;21588;-57
2021/05/25 02:40:23;;;;;;;;;11.50;11.00;;;;;;;;3724566;37;21563;-58
2021/05/25 02:42:50;;;;;;;;;11.00;10.75;;;;;;;;3724700;37;21556;-57
2021/05/25 02:45:16;;;;;;;;;10.75;10.00;;;;;;;;3724496;37;21616;-58
2021/05/25 02:47:42;;;;;;;;;13.00;10.75;;;;;;;;3724624;38;21445;-55
2021/05/25 02:50:12;;;;;;;;;10.00;9.25;;;;;;;;3724397;37;21527;-56
2021/05/25 02:52:53;;;;;;;;;10.50;10.50;;;;;;;;3724836;37;21162;-57
2021/05/25 02:55:24;;;;;;;;;11.50;11.00;;;;;;;;3724776;37;21568;-57
2021/05/25 02:57:54;;;;;;;;;14.50;13.50;;;;;;;;3724395;38;21574;-57
2021/05/25 03:00:23;;;;;;;;;11.75;11.75;;;;;;;;3724693;37;21586;-57
2021/05/25 03:02:54;;;;;;;;;11.75;11.00;;;;;;;;3724093;37;21565;-56
2021/05/25 03:05:24;;;;;;;;;12.50;12.50;;;;;;;;3724496;37;21513;-57
2021/05/25 03:07:54;;;;;;;;;11.00;11.00;;;;;;;;3724769;37;21509;-57
2021/05/25 03:10:21;;;;;;;;;10.25;10.25;;;;;;;;3724628;38;21512;-57
2021/05/25 03:12:48;;;;;;;;;10.75;10.75;;;;;;;;3724517;38;21502;-57
2021/05/25 03:15:16;;;;;;;;;17.50;15.25;;;;;;;;3724740;38;21498;-58
2021/05/25 03:17:44;;;;;;;;;14.75;14.75;;;;;;;;3724699;38;21542;-57
2021/05/25 03:20:11;;;;;;;;;15.00;14.25;;;;;;;;3724458;38;21563;-57
2021/05/25 03:22:38;;;;;;;;;13.00;12.25;;;;;;;;3726385;38;21552;-57
2021/05/25 03:25:05;;;;;;;;;13.75;13.75;;;;;;;;3724565;37;21567;-56
2021/05/25 03:27:31;;;;;;;;;20.00;18.00;;;;;;;;3724641;37;21520;-57
2021/05/25 03:29:57;;;;;;;;;17.50;15.75;;;;;;;;3725013;38;21500;-56
2021/05/25 03:32:24;;;;;;;;;12.75;12.75;;;;;;;;3724813;37;21521;-57
2021/05/25 03:34:49;;;;;;;;;11.75;11.75;;;;;;;;3724414;37;21551;-57
2021/05/25 03:37:17;;;;;;;;;14.00;13.25;;;;;;;;3724607;37;21542;-57
2021/05/25 03:39:44;;;;;;;;;15.50;14.50;;;;;;;;3724677;38;18396;-57
2021/05/25 03:42:10;;;;;;;;;14.25;14.00;;;;;;;;3724386;37;21547;-56
2021/05/25 03:44:36;;;;;;;;;11.75;11.75;;;;;;;;3724582;38;21532;-56
2021/05/25 03:47:04;;;;;;;;;12.75;12.75;;;;;;;;3724584;38;18406;-57
2021/05/25 03:49:31;;;;;;;;;14.50;14.50;;;;;;;;3724423;37;21487;-56
2021/05/25 03:51:57;;;;;;;;;14.25;12.50;;;;;;;;3724615;37;21448;-57
2021/05/25 03:54:26;;;;;;;;;13.00;12.25;;;;;;;;3724534;38;18379;-56
2021/05/25 03:56:58;;;;;;;;;15.00;15.00;;;;;;;;3724648;37;18368;-56
2021/05/25 03:59:24;;;;;;;;;16.00;16.00;;;;;;;;3724708;37;21476;-56
2021/05/25 04:01:51;;;;;;;;;12.75;12.75;;;;;;;;3724425;38;21525;-56
2021/05/25 04:04:17;;;;;;;;;12.00;12.00;;;;;;;;3724709;37;18347;-58
2021/05/25 04:06:43;;;;;;;;;12.50;12.50;;;;;;;;3724529;37;21446;-57
2021/05/25 04:09:09;;;;;;;;;14.75;13.25;;;;;;;;3724719;38;21428;-57
2021/05/25 04:11:36;;;;;;;;;14.75;13.25;;;;;;;;3724623;38;21457;-57
2021/05/25 04:14:02;;;;;;;;;12.50;12.50;;;;;;;;3724489;38;18345;-57
2021/05/25 04:16:28;;;;;;;;;11.50;11.50;;;;;;;;3724560;37;21445;-57
2021/05/25 04:18:54;;;;;;;;;13.00;12.25;;;;;;;;3724790;37;21485;-57
2021/05/25 04:21:21;;;;;;;;;12.00;12.00;;;;;;;;3724591;37;18347;-57
2021/05/25 04:23:47;;;;;;;;;8.75;8.75;;;;;;;;3724462;37;18325;-57
2021/05/25 04:26:15;;;;;;;;;9.75;8.50;;;;;;;;3724455;37;21360;-57
2021/05/25 04:28:41;;;;;;;;;9.25;9.25;;;;;;;;3724601;37;21353;-57
2021/05/25 04:31:07;;;;;;;;;17.50;15.25;;;;;;;;3724449;37;21291;-58
2021/05/25 04:33:34;;;;;;;;;9.50;9.50;;;;;;;;3724574;37;21477;-56
2021/05/25 04:36:00;;;;;;;;;10.25;10.25;;;;;;;;3724681;37;18332;-56
2021/05/25 04:38:26;;;;;;;;;9.00;8.00;;;;;;;;3724496;38;21365;-57
2021/05/25 04:40:52;;;;;;;;;9.75;9.75;;;;;;;;3724735;38;18332;-57
2021/05/25 04:43:20;;;;;;;;;9.50;9.00;;;;;;;;3724477;37;21308;-57
2021/05/25 04:45:47;;;;;;;;;11.00;11.00;;;;;;;;3724825;38;20986;-57
2021/05/25 04:48:14;;;;;;;;;16.00;15.75;;;;;;;;3724698;38;21566;-58
2021/05/25 04:50:42;;;;;;;;;11.00;11.00;;;;;;;;3724941;38;21411;-57
2021/05/25 04:53:08;;;;;;;;;17.25;16.75;;;;;;;;3724611;37;21584;-57
2021/05/25 04:55:34;;;;;;;;;10.25;8.75;;;;;;;;3725154;37;21418;-58
2021/05/25 04:58:00;;;;;;;;;15.75;15.75;;;;;;;;3724732;38;21563;-57
2021/05/25 05:00:26;;;;;;;;;18.50;18.50;;;;;;;;3725047;37;18279;-57
2021/05/25 05:02:55;;;;;;;;;13.75;13.75;;;;;;;;3724625;37;18294;-57
2021/05/25 05:05:22;;;;;;;;;14.50;14.00;;;;;;;;3724894;37;21383;-58
2021/05/25 05:07:48;;;;;;;;;10.00;10.00;;;;;;;;3725348;37;21391;-58
2021/05/25 05:10:16;;;;;;;;;12.75;12.50;;;;;;;;3725246;37;21410;-57
2021/05/25 05:12:42;;;;;;;;;8.25;8.25;;;;;;;;3724815;37;21575;-56
2021/05/25 05:15:09;;;;;;;;;13.25;13.00;;;;;;;;3725198;37;21242;-56
2021/05/25 05:17:35;;;;;;;;;10.50;10.50;;;;;;;;3724971;37;21374;-59
2021/05/25 05:20:02;;;;;;;;;14.75;14.75;;;;;;;;3725068;37;21405;-59
2021/05/25 05:22:29;;;;;;;;;14.25;14.00;;;;;;;;3725079;38;21412;-58
2021/05/25 05:24:55;;;;;;;;;18.00;17.75;;;;;;;;3724969;38;21372;-57
2021/05/25 05:27:21;;;;;;;;;16.25;15.50;;;;;;;;3724954;37;21489;-56
2021/05/25 05:29:48;;;;;;;;;17.75;16.75;;;;;;;;3724890;37;21358;-58
2021/05/25 05:32:14;;;;;;;;;20.00;19.75;;;;;;;;3724976;37;21373;-56
2021/05/25 05:34:41;;;;;;;;;43.00;35.25;;;;;;;;3724972;37;21429;-56
2021/05/25 05:37:07;;;;;;;;;19.50;19.50;;;;;;;;3725036;38;21130;-56
2021/05/25 05:39:33;;;;;;;;;7.50;7.25;;;;;;;;3725209;37;21350;-57
2021/05/25 05:42:00;;;;;;;;;11.25;10.50;;;;;;;;3725266;37;21240;-57
2021/05/25 05:44:27;;;;;;;;;9.25;9.25;;;;;;;;3724876;38;21500;-56
2021/05/25 05:46:53;;;;;;;;;13.25;12.50;;;;;;;;3724798;37;21317;-57
2021/05/25 05:49:22;;;;;;;;;6.75;6.00;;;;;;;;3725785;38;18232;-58
2021/05/25 05:51:50;;;;;;;;;5.25;5.25;;;;;;;;3724616;38;21390;-57
2021/05/25 05:54:16;;;;;;;;;7.00;7.00;;;;;;;;3724833;37;21384;-57
2021/05/25 05:56:43;;;;;;;;;3.00;3.00;;;;;;;;3724666;37;21410;-56
2021/05/25 05:59:09;;;;;;;;;6.25;6.25;;;;;;;;3724523;37;21386;-56
2021/05/25 06:01:35;;;;;;;;;7.00;6.75;;;;;;;;3724704;37;21397;-57
2021/05/25 06:04:01;;;;;;;;;8.00;8.00;;;;;;;;3724649;38;18220;-56
2021/05/25 06:06:27;;;;;;;;;10.25;9.75;;;;;;;;3724712;37;18213;-58
2021/05/25 06:08:54;;;;;;;;;7.25;6.00;;;;;;;;3724681;38;21412;-55
2021/05/25 06:11:21;;;;;;;;;6.50;5.75;;;;;;;;3724296;38;18202;-56
2021/05/25 06:13:46;;;;;;;;;3.00;3.00;;;;;;;;3724778;37;21359;-57
2021/05/25 06:16:12;;;;;;;;;7.25;7.25;;;;;;;;3724586;38;21383;-57
2021/05/25 06:18:43;;;;;;;;;5.00;3.75;;;;;;;;3724789;37;18202;-56
2021/05/25 06:21:09;;;;;;;;;5.00;5.00;;;;;;;;3724997;37;18173;-56
2021/05/25 06:23:35;;;;;;;;;3.00;3.00;;;;;;;;3724853;38;21373;-57
2021/05/25 06:26:02;;;;;;;;;5.50;5.00;;;;;;;;3725306;38;21360;-56
2021/05/25 06:28:38;;;;;;;;;3.00;3.00;;;;;;;;3726798;37;21359;-57
2021/05/25 06:31:05;;;;;;;;;4.50;4.50;;;;;;;;3724914;38;21379;-57
2021/05/25 06:33:31;;;;;;;;;4.00;4.00;;;;;;;;3724920;38;21288;-56
2021/05/25 06:35:58;;;;;;;;;6.00;6.00;;;;;;;;3725292;38;21329;-59
2021/05/25 06:38:25;;;;;;;;;4.00;4.00;;;;;;;;3724960;38;21360;-57
2021/05/25 06:40:52;;;;;;;;;4.00;4.00;;;;;;;;3725227;37;18141;-55
2021/05/25 06:43:18;;;;;;;;;4.00;4.00;;;;;;;;3724660;38;21339;-55
2021/05/25 06:45:44;;;;;;;;;4.50;3.50;;;;;;;;3724146;37;21342;-55
2021/05/25 06:48:11;;;;;;;;;4.00;3.00;;;;;;;;3724218;37;21339;-55
2021/05/25 06:50:37;;;;;;;;;3.00;2.50;;;;;;;;3724898;37;21332;-56
2021/05/25 06:53:12;;;;;;;;;3.50;3.00;;;;;;;;3724180;38;21316;-56
2021/05/25 06:55:38;;;;;;;;;6.00;6.00;;;;;;;;3724385;38;21318;-57
2021/05/25 06:58:04;;;;;;;;;3.50;3.50;;;;;;;;3724143;38;21318;-57
2021/05/25 07:00:30;;;;;;;;;3.00;3.00;;;;;;;;3724415;38;21296;-56
2021/05/25 07:02:56;;;;;;;;;4.00;4.00;;;;;;;;3724215;38;18128;-57
2021/05/25 07:05:22;;;;;;;;;4.00;3.50;;;;;;;;3724396;38;18110;-55
2021/05/25 07:07:50;;;;;;;;;2.75;2.75;;;;;;;;3724376;37;18103;-57
2021/05/25 07:10:19;;;;;;;;;3.25;3.25;;;;;;;;3723982;37;21401;-57
2021/05/25 07:12:46;;;;;;;;;3.00;3.00;;;;;;;;3724353;37;21294;-57
2021/05/25 07:15:16;;;;;;;;;2.00;2.00;;;;;;;;3724085;38;18101;-57
2021/05/25 07:17:46;;;;;;;;;2.00;2.00;;;;;;;;3724681;37;21314;-57
2021/05/25 07:20:13;;;;;;;;;4.00;4.00;;;;;;;;3724993;37;21306;-56
2021/05/25 07:22:39;;;;;;;;;6.25;6.00;;;;;;;;3725087;38;21285;-58
2021/05/25 07:25:05;;;;;;;;;3.50;3.25;;;;;;;;3724913;38;21270;-58
2021/05/25 07:27:31;;;;;;;;;2.00;2.00;;;;;;;;3725294;38;18095;-57
2021/05/25 07:29:57;;;;;;;;;3.00;3.00;;;;;;;;3724798;38;21292;-59
2021/05/25 07:32:24;;;;;;;;;2.50;2.50;;;;;;;;3724779;37;21209;-58
2021/05/25 07:34:50;;;;;;;;;3.25;3.25;;;;;;;;3724844;37;21282;-57
2021/05/25 07:37:16;;;;;;;;;4.00;4.00;;;;;;;;3725165;38;21255;-57
2021/05/25 07:39:42;;;;;;;;;4.00;4.00;;;;;;;;3724772;38;21246;-57
2021/05/25 07:42:08;;;;;;;;;3.00;3.00;;;;;;;;3725027;37;18073;-56
2021/05/25 07:44:34;;;;;;;;;5.25;5.00;;;;;;;;3725140;38;18073;-58
2021/05/25 07:47:01;;;;;;;;;3.00;3.00;;;;;;;;3724923;37;21229;-58
2021/05/25 07:49:28;;;;;;;;;4.75;4.75;;;;;;;;3725187;37;21258;-57
2021/05/25 07:51:56;;;;;;;;;2.25;2.25;;;;;;;;3725081;37;21235;-57
2021/05/25 07:54:22;;;;;;;;;3.00;3.00;;;;;;;;3725745;38;21251;-58
2021/05/25 07:56:49;;;;;;;;;3.50;3.00;;;;;;;;3725529;38;21253;-59
2021/05/25 07:59:18;;;;;;;;;2.75;2.75;;;;;;;;3725379;38;21254;-58
2021/05/25 08:01:47;;;;;;;;;3.00;3.00;;;;;;;;3725064;38;21226;-58
2021/05/25 08:04:13;;;;;;;;;3.00;2.00;;;;;;;;3724648;38;21222;-57
2021/05/25 08:06:39;;;;;;;;;3.00;3.00;;;;;;;;3725333;37;21224;-57
2021/05/25 08:09:06;;;;;;;;;3.00;3.00;;;;;;;;3725639;37;21239;-57
2021/05/25 08:11:32;;;;;;;;;3.25;3.25;;;;;;;;3725363;37;18040;-57
2021/05/25 08:13:58;;;;;;;;;2.25;2.25;;;;;;;;3724884;37;21228;-57
2021/05/25 08:16:28;;;;;;;;;3.25;3.25;;;;;;;;3725145;37;21222;-58
2021/05/25 08:19:26;;;;;;;;;2.25;2.25;;;;;;;;3725292;37;18016;-59
2021/05/25 08:21:52;;;;;;;;;3.50;3.50;;;;;;;;3724994;37;21230;-58
2021/05/25 08:24:19;;;;;;;;;3.00;3.00;;;;;;;;3725014;37;21021;-57
2021/05/25 08:26:46;;;;;;;;;3.00;2.50;;;;;;;;3725018;37;21194;-58
2021/05/25 08:29:13;;;;;;;;;3.75;3.75;;;;;;;;3724945;37;21194;-57
2021/05/25 08:31:39;;;;;;;;;5.00;5.00;;;;;;;;3724851;37;21265;-58
2021/05/25 08:34:11;;;;;;;;;3.50;2.50;;;;;;;;3724946;37;21206;-58
2021/05/25 08:36:39;;;;;;;;;3.00;3.00;;;;;;;;3725057;37;18017;-58
2021/05/25 08:39:05;;;;;;;;;2.00;2.00;;;;;;;;3724923;37;21198;-57
2021/05/25 08:41:34;;;;;;;;;2.00;2.00;;;;;;;;3724724;38;21192;-57
2021/05/25 08:44:01;;;;;;;;;2.00;2.00;;;;;;;;3724984;37;21170;-57
2021/05/25 08:46:27;;;;;;;;;2.75;1.50;;;;;;;;3724640;38;21162;-58
2021/05/25 08:48:54;;;;;;;;;2.50;2.50;;;;;;;;3725142;37;21159;-57
2021/05/25 08:51:25;;;;;;;;;3.00;3.00;;;;;;;;3725754;38;21175;-58
2021/05/25 08:53:51;;;;;;;;;2.50;2.00;;;;;;;;3725196;37;21182;-58
2021/05/25 08:56:17;;;;;;;;;4.00;3.00;;;;;;;;3725236;37;21161;-58
2021/05/25 08:58:43;;;;;;;;;1.25;1.25;;;;;;;;3725246;38;17972;-58
2021/05/25 09:01:09;;;;;;;;;2.00;2.00;;;;;;;;3724921;37;21140;-57
2021/05/25 09:03:54;;;;;;;;;3.00;3.00;;;;;;;;3725108;38;17978;-58
2021/05/25 09:06:35;;;;;;;;;3.00;3.00;;;;;;;;3725058;37;17970;-58
2021/05/25 09:09:08;;;;;;;;;1.00;1.00;;;;;;;;3724968;38;21142;-58
2021/05/25 09:11:51;;;;;;;;;1.25;1.25;;;;;;;;3725043;37;21169;-58
2021/05/25 09:14:17;;;;;;;;;2.00;2.00;;;;;;;;3724951;38;20827;-59
2021/05/25 09:16:45;;;;;;;;;2.00;2.00;;;;;;;;3724803;38;21139;-57
2021/05/25 09:19:11;;;;;;;;;4.75;4.00;;;;;;;;3725177;38;17948;-58
2021/05/25 09:21:37;;;;;;;;;3.00;3.00;;;;;;;;3725030;38;20952;-57
2021/05/25 09:24:04;;;;;;;;;2.50;2.50;;;;;;;;3725184;38;17954;-56
2021/05/25 09:26:44;;;;;;;;;4.00;4.00;;;;;;;;3724448;38;21129;-59
2021/05/25 09:29:12;;;;;;;;;2.00;2.00;;;;;;;;3724931;37;21117;-58
2021/05/25 09:31:45;;;;;;;;;2.75;2.00;;;;;;;;3725015;37;21132;-58
2021/05/25 09:34:20;;;;;;;;;3.25;3.00;;;;;;;;3724914;38;21109;-58
2021/05/25 09:37:05;;;;;;;;;5.50;5.50;;;;;;;;3725401;38;21110;-57
2021/05/25 09:40:00;;;;;;;;;3.75;3.75;;;;;;;;3725330;38;21136;-59
2021/05/25 09:42:29;;;;;;;;;2.00;2.00;;;;;;;;3725838;37;21115;-57
2021/05/25 09:44:59;;;;;;;;;2.00;2.00;;;;;;;;3726915;38;21110;-58
2021/05/25 09:47:38;;;;;;;;;3.75;3.75;;;;;;;;3725647;38;21089;-57
2021/05/25 09:50:07;;;;;;;;;2.50;2.50;;;;;;;;3725487;38;21146;-56
2021/05/25 09:52:34;;;;;;;;;3.00;3.00;;;;;;;;3726398;37;21095;-57
2021/05/25 09:55:10;;;;;;;;;1.50;1.50;;;;;;;;3725620;37;21075;-57
2021/05/25 09:57:50;;;;;;;;;;;;;;;;;;;;;
2021/05/25 10:00:24;;;;;;;;;2.75;2.75;;;;;;;;3725655;38;21071;-57
2021/05/25 10:03:06;;;;;;;;;4.00;3.00;;;;;;;;3725514;38;21073;-58
2021/05/25 10:05:33;;;;;;;;;4.00;3.00;;;;;;;;3725451;38;20890;-58
2021/05/25 10:08:00;;;;;;;;;2.00;2.00;;;;;;;;3725607;37;21063;-57
2021/05/25 10:10:30;;;;;;;;;2.00;2.00;;;;;;;;3727768;37;21063;-57
2021/05/25 10:12:59;;;;;;;;;2.00;2.00;;;;;;;;3725297;37;21062;-56
2021/05/25 10:15:27;;;;;;;;;4.00;4.00;;;;;;;;3725575;37;21090;-57
2021/05/25 10:18:28;;;;;;;;;5.00;5.00;;;;;;;;3725428;38;20918;-57
2021/05/25 10:20:43;;;;;;;;;4.00;3.00;;;;;;;;3725072;38;21094;-57
2021/05/25 10:23:09;;;;;;;;;12.75;12.25;;;;;;;;3725019;38;21070;-57
2021/05/25 10:25:36;;;;;;;;;5.25;5.25;;;;;;;;3725005;38;21193;-56
2021/05/25 10:28:09;;;;;;;;;5.00;5.00;;;;;;;;3725051;38;20826;-56
2021/05/25 10:30:44;;;;;;;;;4.00;4.00;;;;;;;;3725050;37;21057;-57
2021/05/25 10:33:21;;;;;;;;;2.75;2.75;;;;;;;;3725522;38;21035;-57
2021/05/25 10:36:16;;;;;;;;;4.00;4.00;;;;;;;;3725140;37;21057;-57
2021/05/25 10:39:00;;;;;;;;;5.25;5.25;;;;;;;;3725107;37;21048;-57
2021/05/25 10:41:31;;;;;;;;;4.25;4.00;;;;;;;;3725072;37;21126;-59
2021/05/25 10:43:58;;;;;;;;;2.50;2.50;;;;;;;;3725085;38;21042;-57
2021/05/25 10:46:25;;;;;;;;;3.00;3.00;;;;;;;;3725215;38;21013;-59
2021/05/25 10:49:15;;;;;;;;;3.00;3.00;;;;;;;;3725294;37;21041;-57
2021/05/25 10:52:04;;;;;;;;;3.00;2.00;;;;;;;;3725108;37;21030;-55
2021/05/25 10:54:39;;;;;;;;;4.00;4.00;;;;;;;;3725142;38;20952;-57
2021/05/25 10:57:23;;;;;;;;;3.50;2.75;;;;;;;;3724982;38;21215;-60
2021/05/25 11:00:26;;;;;;;;;5.25;5.25;;;;;;;;3724816;38;21040;-59
2021/05/25 11:03:02;;;;;;;;;5.00;5.00;;;;;;;;3724884;38;21009;-57
2021/05/25 11:05:48;;;;;;;;;3.00;2.00;;;;;;;;3724753;37;21020;-58
2021/05/25 11:08:24;;;;;;;;;2.25;2.25;;;;;;;;3724852;37;21023;-57
2021/05/25 11:11:01;;;;;;;;;2.50;2.50;;;;;;;;3724821;38;21014;-57
2021/05/25 11:13:30;;;;;;;;;3.00;3.00;;;;;;;;3725084;38;21004;-56
2021/05/25 11:16:08;;;;;;;;;2.75;2.75;;;;;;;;3724505;37;20991;-57
2021/05/25 11:18:41;;;;;;;;;3.00;3.00;;;;;;;;3724744;38;20987;-56
2021/05/25 11:21:19;;;;;;;;;3.50;3.50;;;;;;;;3724724;37;20997;-58
2021/05/25 11:23:52;;;;;;;;;4.25;4.00;;;;;;;;3724683;37;20975;-58
2021/05/25 11:26:43;;;;;;;;;4.75;4.00;;;;;;;;3724942;37;20966;-58
2021/05/25 11:29:20;;;;;;;;;3.75;3.00;;;;;;;;3724994;38;20999;-58
2021/05/25 11:31:46;;;;;;;;;3.25;3.25;;;;;;;;3724880;37;20965;-58
2021/05/25 11:34:12;;;;;;;;;4.25;4.00;;;;;;;;3724964;37;20970;-57
2021/05/25 11:36:38;;;;;;;;;2.00;2.00;;;;;;;;3724878;37;20960;-60
2021/05/25 11:39:06;;;;;;;;;3.00;3.00;;;;;;;;3725518;38;20964;-57
2021/05/25 11:41:31;;;;;;;;;4.00;4.00;;;;;;;;3724915;38;20874;-57
2021/05/25 11:44:17;;;;;;;;;3.75;3.00;;;;;;;;3724985;37;20944;-57
2021/05/25 11:46:47;;;;;;;;;5.75;5.75;;;;;;;;3725032;38;17770;-57
2021/05/25 11:49:14;;;;;;;;;3.00;3.00;;;;;;;;3724891;37;20932;-57
2021/05/25 11:51:41;;;;;;;;;2.00;2.00;;;;;;;;3725007;38;20958;-58
2021/05/25 11:54:11;;;;;;;;;5.00;5.00;;;;;;;;3724970;38;20934;-58
2021/05/25 11:56:38;;;;;;;;;3.50;3.00;;;;;;;;3724981;38;20934;-57
2021/05/25 11:59:10;;;;;;;;;3.75;3.75;;;;;;;;3724862;37;20946;-58
2021/05/25 12:01:44;;;;;;;;;3.00;3.00;;;;;;;;3724903;37;20936;-57
2021/05/25 12:04:11;;;;;;;;;3.25;2.75;;;;;;;;3724960;37;20911;-57
2021/05/25 12:06:46;;;;;;;;;2.75;2.75;;;;;;;;3725344;37;20914;-57
2021/05/25 12:09:12;;;;;;;;;3.25;3.25;;;;;;;;3724731;38;20894;-56
2021/05/25 12:11:42;;;;;;;;;1.00;1.00;;;;;;;;3724726;38;20923;-55
2021/05/25 12:14:12;;;;;;;;;5.25;5.25;;;;;;;;3724727;37;17733;-57
2021/05/25 12:16:38;;;;;;;;;2.00;2.00;;;;;;;;3724818;38;20923;-57
2021/05/25 12:19:05;;;;;;;;;3.00;3.00;;;;;;;;3724929;37;20886;-58
2021/05/25 12:21:38;;;;;;;;;3.50;3.00;;;;;;;;3724991;37;20909;-56
2021/05/25 12:24:05;;;;;;;;;4.50;4.50;;;;;;;;3724388;37;20886;-57
2021/05/25 12:26:46;;;;;;;;;3.00;3.00;;;;;;;;3725084;37;20902;-57
2021/05/25 12:29:15;;;;;;;;;4.00;4.00;;;;;;;;3724938;37;20887;-56
2021/05/25 12:31:43;;;;;;;;;3.50;3.00;;;;;;;;3725442;38;20909;-57
2021/05/25 12:34:09;;;;;;;;;3.50;2.75;;;;;;;;3725868;37;20894;-57
2021/05/25 12:36:49;;;;;;;;;3.00;3.00;;;;;;;;3725457;37;20898;-58
2021/05/25 12:39:24;;;;;;;;;3.00;3.00;;;;;;;;3724936;38;17691;-58
2021/05/25 12:41:50;;;;;;;;;4.25;4.00;;;;;;;;3724704;38;20874;-56
2021/05/25 12:44:18;;;;;;;;;4.00;4.00;;;;;;;;3725146;38;20856;-57
2021/05/25 12:47:02;;;;;;;;;2.50;2.50;;;;;;;;3724932;37;20860;-56
2021/05/25 12:49:35;;;;;;;;;3.75;3.75;;;;;;;;3724854;37;20872;-57
2021/05/25 12:52:22;;;;;;;;;3.75;3.75;;;;;;;;3724996;37;20862;-58
2021/05/25 12:55:06;;;;;;;;;3.75;3.75;;;;;;;;3724767;37;21832;-56
2021/05/25 12:57:50;;;;;;;;;5.00;5.00;;;;;;;;3725058;38;20892;-56
2021/05/25 13:00:40;;;;;;;;;5.00;4.75;;;;;;;;3724343;37;21863;-57
2021/05/25 13:03:26;;;;;;;;;5.75;5.50;;;;;;;;3724682;37;20882;-58
2021/05/25 13:06:11;;;;;;;;;5.25;4.75;;;;;;;;3724488;37;21830;-57
2021/05/25 13:08:37;;;;;;;;;6.00;5.00;;;;;;;;3724677;38;20864;-56
2021/05/25 13:11:09;;;;;;;;;6.50;5.00;;;;;;;;3724790;37;20770;-57
2021/05/25 13:13:39;;;;;;;;;6.25;6.25;;;;;;;;3724890;37;18650;-57
2021/05/25 13:16:05;;;;;;;;;4.50;4.50;;;;;;;;3724813;37;21659;-56
2021/05/25 13:18:38;;;;;;;;;3.00;3.00;;;;;;;;3725032;38;21838;-58
2021/05/25 13:21:06;;;;;;;;;5.75;5.00;;;;;;;;3725201;37;21813;-59
2021/05/25 13:23:33;;;;;;;;;4.50;3.50;;;;;;;;3724693;37;21836;-57
2021/05/25 13:26:20;;;;;;;;;4.50;4.50;;;;;;;;3725187;38;21847;-57
2021/05/25 13:28:54;;;;;;;;;4.75;4.75;;;;;;;;3725141;37;21861;-57
2021/05/25 13:31:24;;;;;;;;;7.25;7.00;;;;;;;;3725022;37;21800;-57
2021/05/25 13:33:51;;;;;;;;;5.00;5.00;;;;;;;;3725065;38;21811;-57
2021/05/25 13:36:19;;;;;;;;;4.00;4.00;;;;;;;;3725151;37;21649;-58
2021/05/25 13:38:48;;;;;;;;;4.25;4.25;;;;;;;;3724823;37;21786;-57
2021/05/25 13:41:16;;;;;;;;;4.00;4.00;;;;;;;;3725016;37;21775;-57
2021/05/25 13:43:43;;;;;;;;;9.00;6.25;;;;;;;;3725140;37;21801;-57
2021/05/25 13:46:09;;;;;;;;;7.50;7.00;;;;;;;;3725247;37;21792;-57
2021/05/25 13:48:35;;;;;;;;;9.00;8.50;;;;;;;;3724933;38;21795;-58
2021/05/25 13:51:02;;;;;;;;;5.50;5.00;;;;;;;;3725001;38;21835;-58
2021/05/25 13:53:29;;;;;;;;;4.25;4.25;;;;;;;;3724917;37;21773;-57
2021/05/25 13:55:56;;;;;;;;;9.00;9.00;;;;;;;;3724917;38;21750;-58
2021/05/25 13:58:22;;;;;;;;;6.75;6.75;;;;;;;;3724938;37;18609;-57
2021/05/25 14:01:08;;;;;;;;;6.25;6.25;;;;;;;;3724925;37;21767;-56
2021/05/25 14:03:34;;;;;;;;;5.00;5.00;;;;;;;;3724977;37;21836;-56
2021/05/25 14:06:00;;;;;;;;;4.00;4.00;;;;;;;;3724969;37;21763;-57
2021/05/25 14:08:26;;;;;;;;;4.00;4.00;;;;;;;;3724906;37;21779;-56
2021/05/25 14:10:52;;;;;;;;;3.00;2.75;;;;;;;;3724785;38;18557;-57
2021/05/25 14:13:18;;;;;;;;;5.00;5.00;;;;;;;;3724678;38;21656;-56
2021/05/25 14:15:44;;;;;;;;;4.25;4.25;;;;;;;;3724899;37;18573;-56
2021/05/25 14:18:10;;;;;;;;;4.25;4.25;;;;;;;;3724908;38;18553;-57
2021/05/25 14:20:38;;;;;;;;;4.50;4.25;;;;;;;;3725110;37;21735;-57
2021/05/25 14:23:03;;;;;;;;;8.00;8.00;;;;;;;;3725095;37;18562;-57
2021/05/25 14:25:31;;;;;;;;;5.00;5.00;;;;;;;;3725044;38;21308;-56
2021/05/25 14:27:57;;;;;;;;;6.75;6.75;;;;;;;;3725398;37;18520;-56
2021/05/25 14:30:23;;;;;;;;;3.00;2.75;;;;;;;;3725113;38;21292;-57
2021/05/25 14:32:55;;;;;;;;;5.75;5.75;;;;;;;;3725148;38;21278;-56
2021/05/25 14:35:22;;;;;;;;;5.00;4.75;;;;;;;;3725190;37;21283;-57
2021/05/25 14:37:48;;;;;;;;;6.75;6.75;;;;;;;;3725175;38;21193;-57
2021/05/25 14:40:15;;;;;;;;;8.00;7.50;;;;;;;;3725330;38;21180;-57
2021/05/25 14:42:42;;;;;;;;;7.75;7.50;;;;;;;;3725111;37;21247;-57
2021/05/25 14:45:09;;;;;;;;;6.00;6.00;;;;;;;;3725147;38;21185;-56
2021/05/25 14:47:35;;;;;;;;;5.00;5.00;;;;;;;;3724985;38;18465;-56